sensor_id;sensor_type;location;lat;lon;timestamp;pressure;altitude;pressure_sealevel;temperature;humidity
18533;BME280;9396;51.510;11.934;2024-01-30T00:00:50;101927.06;;;4.12;95.86
18533;BME280;9396;51.510;11.934;2024-01-30T00:03:18;101909.06;;;4.03;96.08
18533;BME280;9396;51.510;11.934;2024-01-30T00:05:45;101918.97;;;3.98;96.35
18533;BME280;9396;51.510;11.934;2024-01-30T00:08:13;101914.44;;;3.83;96.77
18533;BME280;9396;51.510;11.934;2024-01-30T00:10:39;101920.41;;;3.87;97.54
18533;BME280;9396;51.510;11.934;2024-01-30T00:13:06;101919.25;;;3.92;97.79
18533;BME280;9396;51.510;11.934;2024-01-30T00:15:33;101918.13;;;3.98;97.53
18533;BME280;9396;51.510;11.934;2024-01-30T00:17:59;101926.94;;;3.97;97.69
18533;BME280;9396;51.510;11.934;2024-01-30T00:20:26;101917.97;;;4.01;97.65
18533;BME280;9396;51.510;11.934;2024-01-30T00:22:53;101919.69;;;4.02;97.64
18533;BME280;9396;51.510;11.934;2024-01-30T00:25:21;101914.63;;;3.97;97.74
18533;BME280;9396;51.510;11.934;2024-01-30T00:27:47;101917.13;;;4.00;97.77
18533;BME280;9396;51.510;11.934;2024-01-30T00:30:14;101905.03;;;3.96;98.15
18533;BME280;9396;51.510;11.934;2024-01-30T00:32:41;101912.69;;;3.65;98.76
18533;BME280;9396;51.510;11.934;2024-01-30T00:35:08;101910.91;;;3.47;100.00
18533;BME280;9396;51.510;11.934;2024-01-30T00:37:36;101916.41;;;3.43;100.00
18533;BME280;9396;51.510;11.934;2024-01-30T00:40:03;101909.44;;;3.60;100.00
18533;BME280;9396;51.510;11.934;2024-01-30T00:42:32;101904.97;;;3.79;99.43
18533;BME280;9396;51.510;11.934;2024-01-30T00:44:59;101905.47;;;3.87;99.27
18533;BME280;9396;51.510;11.934;2024-01-30T00:47:26;101908.56;;;3.95;98.76
18533;BME280;9396;51.510;11.934;2024-01-30T00:49:54;101905.56;;;4.03;98.71
18533;BME280;9396;51.510;11.934;2024-01-30T00:52:21;101905.19;;;3.93;98.40
18533;BME280;9396;51.510;11.934;2024-01-30T00:54:47;101901.78;;;4.08;98.19
18533;BME280;9396;51.510;11.934;2024-01-30T00:57:14;101905.53;;;4.21;97.96
18533;BME280;9396;51.510;11.934;2024-01-30T00:59:42;101893.88;;;4.25;97.67
18533;BME280;9396;51.510;11.934;2024-01-30T01:02:08;101889.09;;;4.33;97.37
18533;BME280;9396;51.510;11.934;2024-01-30T01:04:35;101899.00;;;4.46;97.47
18533;BME280;9396;51.510;11.934;2024-01-30T01:07:02;101895.13;;;4.53;96.76
18533;BME280;9396;51.510;11.934;2024-01-30T01:09:28;101887.69;;;4.61;96.38
18533;BME280;9396;51.510;11.934;2024-01-30T01:11:55;101887.38;;;4.67;96.32
18533;BME280;9396;51.510;11.934;2024-01-30T01:14:22;101894.97;;;4.73;95.84
18533;BME280;9396;51.510;11.934;2024-01-30T01:16:50;101895.56;;;4.78;95.39
18533;BME280;9396;51.510;11.934;2024-01-30T01:19:16;101889.22;;;4.82;94.95
18533;BME280;9396;51.510;11.934;2024-01-30T01:21:43;101888.97;;;4.86;94.81
18533;BME280;9396;51.510;11.934;2024-01-30T01:24:09;101887.19;;;4.87;94.55
18533;BME280;9396;51.510;11.934;2024-01-30T01:26:36;101885.31;;;4.89;94.45
18533;BME280;9396;51.510;11.934;2024-01-30T01:29:03;101880.66;;;4.94;94.47
18533;BME280;9396;51.510;11.934;2024-01-30T01:31:35;101878.78;;;4.96;93.90
18533;BME280;9396;51.510;11.934;2024-01-30T01:34:06;101875.19;;;4.97;94.18
18533;BME280;9396;51.510;11.934;2024-01-30T01:36:33;101875.06;;;5.00;94.06
18533;BME280;9396;51.510;11.934;2024-01-30T01:38:59;101874.88;;;5.03;93.22
18533;BME280;9396;51.510;11.934;2024-01-30T01:41:29;101876.56;;;5.04;93.17
18533;BME280;9396;51.510;11.934;2024-01-30T01:43:56;101879.22;;;5.04;93.48
18533;BME280;9396;51.510;11.934;2024-01-30T01:46:23;101881.84;;;5.04;92.94
18533;BME280;9396;51.510;11.934;2024-01-30T01:48:50;101875.06;;;5.00;93.30
18533;BME280;9396;51.510;11.934;2024-01-30T01:51:18;101883.38;;;4.92;93.24
18533;BME280;9396;51.510;11.934;2024-01-30T01:53:45;101872.13;;;4.89;93.48
18533;BME280;9396;51.510;11.934;2024-01-30T01:56:12;101870.59;;;4.85;93.28
18533;BME280;9396;51.510;11.934;2024-01-30T01:58:39;101875.75;;;4.71;93.25
18533;BME280;9396;51.510;11.934;2024-01-30T02:01:07;101865.69;;;4.62;94.09
18533;BME280;9396;51.510;11.934;2024-01-30T02:03:34;101866.72;;;4.42;94.33
18533;BME280;9396;51.510;11.934;2024-01-30T02:06:01;101873.78;;;4.24;94.91
18533;BME280;9396;51.510;11.934;2024-01-30T02:08:30;101868.34;;;4.27;95.51
18533;BME280;9396;51.510;11.934;2024-01-30T02:10:57;101863.31;;;4.23;95.25
18533;BME280;9396;51.510;11.934;2024-01-30T02:13:23;101863.16;;;4.26;95.45
18533;BME280;9396;51.510;11.934;2024-01-30T02:15:51;101861.22;;;4.29;95.30
18533;BME280;9396;51.510;11.934;2024-01-30T02:18:19;101860.34;;;4.29;95.32
18533;BME280;9396;51.510;11.934;2024-01-30T02:20:47;101869.41;;;4.06;95.81
18533;BME280;9396;51.510;11.934;2024-01-30T02:23:15;101849.44;;;4.02;96.32
18533;BME280;9396;51.510;11.934;2024-01-30T02:25:43;101864.31;;;4.20;95.95
18533;BME280;9396;51.510;11.934;2024-01-30T02:28:10;101865.69;;;4.27;95.85
18533;BME280;9396;51.510;11.934;2024-01-30T02:30:37;101875.16;;;4.14;96.14
18533;BME280;9396;51.510;11.934;2024-01-30T02:33:04;101866.41;;;4.14;96.30
18533;BME280;9396;51.510;11.934;2024-01-30T02:35:31;101874.16;;;4.00;96.28
18533;BME280;9396;51.510;11.934;2024-01-30T02:37:58;101878.13;;;3.90;96.44
18533;BME280;9396;51.510;11.934;2024-01-30T02:40:26;101866.69;;;3.74;96.82
18533;BME280;9396;51.510;11.934;2024-01-30T02:42:53;101867.84;;;3.68;97.46
18533;BME280;9396;51.510;11.934;2024-01-30T02:45:20;101874.19;;;3.46;98.10
18533;BME280;9396;51.510;11.934;2024-01-30T02:47:46;101868.72;;;3.13;99.90
18533;BME280;9396;51.510;11.934;2024-01-30T02:50:13;101868.00;;;2.91;100.00
18533;BME280;9396;51.510;11.934;2024-01-30T02:52:40;101864.16;;;2.98;100.00
18533;BME280;9396;51.510;11.934;2024-01-30T02:55:09;101867.88;;;3.12;100.00
18533;BME280;9396;51.510;11.934;2024-01-30T02:57:37;101855.78;;;3.27;100.00
18533;BME280;9396;51.510;11.934;2024-01-30T03:00:05;101861.19;;;3.43;99.76
18533;BME280;9396;51.510;11.934;2024-01-30T03:02:34;101859.88;;;3.51;98.91
18533;BME280;9396;51.510;11.934;2024-01-30T03:05:01;101854.34;;;3.57;98.92
18533;BME280;9396;51.510;11.934;2024-01-30T03:07:29;101852.63;;;3.56;98.86
18533;BME280;9396;51.510;11.934;2024-01-30T03:09:55;101859.28;;;3.63;98.52
18533;BME280;9396;51.510;11.934;2024-01-30T03:12:22;101860.00;;;3.67;98.50
18533;BME280;9396;51.510;11.934;2024-01-30T03:14:50;101852.75;;;3.72;97.87
18533;BME280;9396;51.510;11.934;2024-01-30T03:17:18;101850.03;;;3.73;97.81
18533;BME280;9396;51.510;11.934;2024-01-30T03:19:44;101852.59;;;3.75;97.68
18533;BME280;9396;51.510;11.934;2024-01-30T03:22:11;101850.13;;;3.72;97.36
18533;BME280;9396;51.510;11.934;2024-01-30T03:24:37;101860.06;;;3.65;97.03
18533;BME280;9396;51.510;11.934;2024-01-30T03:27:04;101861.91;;;3.63;96.87
18533;BME280;9396;51.510;11.934;2024-01-30T03:29:31;101857.16;;;3.53;97.21
18533;BME280;9396;51.510;11.934;2024-01-30T03:31:59;101857.84;;;3.58;97.30
18533;BME280;9396;51.510;11.934;2024-01-30T03:34:26;101860.59;;;3.55;97.54
18533;BME280;9396;51.510;11.934;2024-01-30T03:36:52;101854.63;;;3.51;97.58
18533;BME280;9396;51.510;11.934;2024-01-30T03:39:19;101866.78;;;3.35;97.72
18533;BME280;9396;51.510;11.934;2024-01-30T03:41:46;101867.72;;;2.97;98.58
18533;BME280;9396;51.510;11.934;2024-01-30T03:44:12;101865.72;;;3.02;98.59
18533;BME280;9396;51.510;11.934;2024-01-30T03:46:39;101872.38;;;2.72;99.26
18533;BME280;9396;51.510;11.934;2024-01-30T03:49:07;101855.78;;;2.90;99.92
18533;BME280;9396;51.510;11.934;2024-01-30T03:51:33;101859.66;;;2.81;100.00
18533;BME280;9396;51.510;11.934;2024-01-30T03:54:00;101859.00;;;2.58;100.00
18533;BME280;9396;51.510;11.934;2024-01-30T03:56:27;101856.22;;;2.61;100.00
18533;BME280;9396;51.510;11.934;2024-01-30T03:58:53;101857.81;;;2.65;100.00
18533;BME280;9396;51.510;11.934;2024-01-30T04:01:21;101864.69;;;2.67;100.00
18533;BME280;9396;51.510;11.934;2024-01-30T04:03:48;101863.97;;;2.64;100.00
18533;BME280;9396;51.510;11.934;2024-01-30T04:06:16;101850.72;;;2.47;100.00
18533;BME280;9396;51.510;11.934;2024-01-30T04:08:42;101847.41;;;2.62;100.00
18533;BME280;9396;51.510;11.934;2024-01-30T04:11:09;101843.31;;;2.75;100.00
18533;BME280;9396;51.510;11.934;2024-01-30T04:13:35;101838.56;;;2.64;100.00
18533;BME280;9396;51.510;11.934;2024-01-30T04:16:02;101840.56;;;2.78;100.00
18533;BME280;9396;51.510;11.934;2024-01-30T04:18:29;101837.47;;;2.88;100.00
18533;BME280;9396;51.510;11.934;2024-01-30T04:20:56;101838.22;;;2.72;100.00
18533;BME280;9396;51.510;11.934;2024-01-30T04:23:24;101842.75;;;2.68;100.00
18533;BME280;9396;51.510;11.934;2024-01-30T04:25:50;101840.22;;;2.85;100.00
18533;BME280;9396;51.510;11.934;2024-01-30T04:28:17;101850.59;;;2.88;100.00
18533;BME280;9396;51.510;11.934;2024-01-30T04:30:44;101846.25;;;2.69;100.00
18533;BME280;9396;51.510;11.934;2024-01-30T04:33:10;101845.06;;;2.76;100.00
18533;BME280;9396;51.510;11.934;2024-01-30T04:35:37;101840.13;;;2.68;100.00
18533;BME280;9396;51.510;11.934;2024-01-30T04:38:04;101849.63;;;2.71;100.00
18533;BME280;9396;51.510;11.934;2024-01-30T04:40:32;101845.28;;;2.90;100.00
18533;BME280;9396;51.510;11.934;2024-01-30T04:42:59;101852.25;;;3.09;100.00
18533;BME280;9396;51.510;11.934;2024-01-30T04:45:25;101838.03;;;3.13;100.00
18533;BME280;9396;51.510;11.934;2024-01-30T04:47:55;101845.72;;;3.18;100.00
18533;BME280;9396;51.510;11.934;2024-01-30T04:50:21;101847.19;;;3.23;100.00
18533;BME280;9396;51.510;11.934;2024-01-30T04:52:48;101842.72;;;3.07;100.00
18533;BME280;9396;51.510;11.934;2024-01-30T04:55:14;101845.72;;;3.18;100.00
18533;BME280;9396;51.510;11.934;2024-01-30T04:57:43;101835.97;;;3.01;100.00
18533;BME280;9396;51.510;11.934;2024-01-30T05:00:10;101842.16;;;3.00;100.00
18533;BME280;9396;51.510;11.934;2024-01-30T05:02:37;101837.63;;;3.04;100.00
18533;BME280;9396;51.510;11.934;2024-01-30T05:05:04;101846.50;;;2.63;100.00
18533;BME280;9396;51.510;11.934;2024-01-30T05:07:31;101806.56;;;2.36;100.00
18533;BME280;9396;51.510;11.934;2024-01-30T05:09:57;101845.09;;;2.74;100.00
18533;BME280;9396;51.510;11.934;2024-01-30T05:12:24;101840.56;;;2.78;100.00
18533;BME280;9396;51.510;11.934;2024-01-30T05:14:52;101835.03;;;2.84;100.00
18533;BME280;9396;51.510;11.934;2024-01-30T05:17:18;101840.50;;;2.79;100.00
18533;BME280;9396;51.510;11.934;2024-01-30T05:19:45;101833.34;;;2.83;100.00
18533;BME280;9396;51.510;11.934;2024-01-30T05:22:12;101828.56;;;2.91;100.00
18533;BME280;9396;51.510;11.934;2024-01-30T05:24:40;101831.47;;;2.85;99.75
18533;BME280;9396;51.510;11.934;2024-01-30T05:27:07;101832.81;;;2.75;99.41
18533;BME280;9396;51.510;11.934;2024-01-30T05:29:34;101832.59;;;2.41;100.00
18533;BME280;9396;51.510;11.934;2024-01-30T05:32:02;101839.19;;;2.31;100.00
18533;BME280;9396;51.510;11.934;2024-01-30T05:34:28;101837.59;;;2.27;100.00
18533;BME280;9396;51.510;11.934;2024-01-30T05:36:55;101846.38;;;2.46;100.00
18533;BME280;9396;51.510;11.934;2024-01-30T05:39:22;101843.50;;;2.32;100.00
18533;BME280;9396;51.510;11.934;2024-01-30T05:41:48;101842.31;;;2.39;100.00
18533;BME280;9396;51.510;11.934;2024-01-30T05:44:15;101834.41;;;2.40;100.00
18533;BME280;9396;51.510;11.934;2024-01-30T05:46:42;101841.81;;;2.51;100.00
18533;BME280;9396;51.510;11.934;2024-01-30T05:49:10;101834.28;;;2.62;100.00
18533;BME280;9396;51.510;11.934;2024-01-30T05:51:36;101841.13;;;2.66;100.00
18533;BME280;9396;51.510;11.934;2024-01-30T05:54:03;101837.22;;;2.74;100.00
18533;BME280;9396;51.510;11.934;2024-01-30T05:56:30;101829.81;;;2.64;100.00
18533;BME280;9396;51.510;11.934;2024-01-30T05:58:56;101823.66;;;2.65;100.00
18533;BME280;9396;51.510;11.934;2024-01-30T06:01:23;101822.59;;;2.69;99.73
18533;BME280;9396;51.510;11.934;2024-01-30T06:03:50;101830.03;;;2.78;100.00
18533;BME280;9396;51.510;11.934;2024-01-30T06:06:18;101814.03;;;2.84;99.20
18533;BME280;9396;51.510;11.934;2024-01-30T06:08:44;101818.78;;;2.94;99.30
18533;BME280;9396;51.510;11.934;2024-01-30T06:11:11;101816.44;;;3.07;100.00
18533;BME280;9396;51.510;11.934;2024-01-30T06:13:38;101809.75;;;3.18;99.49
18533;BME280;9396;51.510;11.934;2024-01-30T06:16:04;101815.50;;;3.26;99.59
18533;BME280;9396;51.510;11.934;2024-01-30T06:18:31;101799.44;;;3.33;99.39
18533;BME280;9396;51.510;11.934;2024-01-30T06:20:58;101797.28;;;3.41;99.34
18533;BME280;9396;51.510;11.934;2024-01-30T06:23:26;101800.44;;;3.47;99.41
18533;BME280;9396;51.510;11.934;2024-01-30T06:25:53;101804.44;;;3.56;98.97
18533;BME280;9396;51.510;11.934;2024-01-30T06:28:19;101800.50;;;3.64;98.38
18533;BME280;9396;51.510;11.934;2024-01-30T06:30:46;101810.69;;;3.70;98.25
18533;BME280;9396;51.510;11.934;2024-01-30T06:33:13;101811.72;;;3.68;97.81
18533;BME280;9396;51.510;11.934;2024-01-30T06:35:40;101804.53;;;3.71;97.56
18533;BME280;9396;51.510;11.934;2024-01-30T06:38:07;101820.31;;;3.71;97.43
18533;BME280;9396;51.510;11.934;2024-01-30T06:40:35;101816.91;;;3.69;96.97
18533;BME280;9396;51.510;11.934;2024-01-30T06:43:03;101823.63;;;3.58;97.03
18533;BME280;9396;51.510;11.934;2024-01-30T06:45:30;101828.81;;;3.59;96.90
18533;BME280;9396;51.510;11.934;2024-01-30T06:47:57;101833.91;;;3.62;96.56
18533;BME280;9396;51.510;11.934;2024-01-30T06:50:24;101835.31;;;3.52;96.15
18533;BME280;9396;51.510;11.934;2024-01-30T06:52:50;101823.50;;;3.42;96.67
18533;BME280;9396;51.510;11.934;2024-01-30T06:55:17;101817.53;;;3.39;96.38
18533;BME280;9396;51.510;11.934;2024-01-30T06:57:45;101813.13;;;3.39;96.07
18533;BME280;9396;51.510;11.934;2024-01-30T07:00:13;101814.06;;;3.38;95.76
18533;BME280;9396;51.510;11.934;2024-01-30T07:02:40;101817.69;;;3.36;95.68
18533;BME280;9396;51.510;11.934;2024-01-30T07:05:07;101826.28;;;3.39;96.02
18533;BME280;9396;51.510;11.934;2024-01-30T07:07:34;101833.13;;;3.43;96.16
18533;BME280;9396;51.510;11.934;2024-01-30T07:10:01;101836.25;;;3.33;96.17
18533;BME280;9396;51.510;11.934;2024-01-30T07:12:27;101831.53;;;3.39;96.50
18533;BME280;9396;51.510;11.934;2024-01-30T07:14:56;101830.91;;;3.34;96.45
18533;BME280;9396;51.510;11.934;2024-01-30T07:17:25;101827.50;;;3.32;96.54
18533;BME280;9396;51.510;11.934;2024-01-30T07:19:51;101827.84;;;3.24;96.36
18533;BME280;9396;51.510;11.934;2024-01-30T07:22:18;101828.09;;;3.20;95.96
18533;BME280;9396;51.510;11.934;2024-01-30T07:24:45;101821.91;;;3.21;96.48
18533;BME280;9396;51.510;11.934;2024-01-30T07:27:14;101798.66;;;3.12;96.34
18533;BME280;9396;51.510;11.934;2024-01-30T07:29:42;101818.19;;;3.25;96.52
18533;BME280;9396;51.510;11.934;2024-01-30T07:32:10;101818.19;;;3.25;96.68
18533;BME280;9396;51.510;11.934;2024-01-30T07:34:37;101819.97;;;3.24;96.17
18533;BME280;9396;51.510;11.934;2024-01-30T07:37:04;101804.97;;;3.08;97.09
18533;BME280;9396;51.510;11.934;2024-01-30T07:39:30;101816.34;;;3.08;97.56
18533;BME280;9396;51.510;11.934;2024-01-30T07:41:57;101821.03;;;3.20;97.49
18533;BME280;9396;51.510;11.934;2024-01-30T07:44:24;101819.63;;;3.32;98.43
18533;BME280;9396;51.510;11.934;2024-01-30T07:46:51;101831.78;;;3.16;98.51
18533;BME280;9396;51.510;11.934;2024-01-30T07:49:19;101831.84;;;3.14;98.42
18533;BME280;9396;51.510;11.934;2024-01-30T07:51:45;101837.47;;;3.25;98.88
18533;BME280;9396;51.510;11.934;2024-01-30T07:54:12;101831.81;;;3.33;98.33
18533;BME280;9396;51.510;11.934;2024-01-30T07:56:42;101829.63;;;3.24;97.82
18533;BME280;9396;51.510;11.934;2024-01-30T07:59:09;101827.84;;;3.24;98.19
18533;BME280;9396;51.510;11.934;2024-01-30T08:01:36;101831.94;;;3.13;98.61
18533;BME280;9396;51.510;11.934;2024-01-30T08:04:03;101828.09;;;3.20;99.07
18533;BME280;9396;51.510;11.934;2024-01-30T08:06:31;101830.84;;;3.36;98.82
18533;BME280;9396;51.510;11.934;2024-01-30T08:08:58;101827.00;;;3.43;98.70
18533;BME280;9396;51.510;11.934;2024-01-30T08:11:24;101830.75;;;3.37;99.16
18533;BME280;9396;51.510;11.934;2024-01-30T08:13:52;101832.00;;;3.47;99.07
18533;BME280;9396;51.510;11.934;2024-01-30T08:16:19;101832.50;;;3.55;99.31
18533;BME280;9396;51.510;11.934;2024-01-30T08:18:45;101821.22;;;3.70;99.38
18533;BME280;9396;51.510;11.934;2024-01-30T08:21:12;101827.84;;;3.79;99.14
18533;BME280;9396;51.510;11.934;2024-01-30T08:23:40;101826.38;;;3.90;98.85
18533;BME280;9396;51.510;11.934;2024-01-30T08:26:07;101824.06;;;4.01;99.12
18533;BME280;9396;51.510;11.934;2024-01-30T08:28:33;101818.41;;;4.09;98.79
18533;BME280;9396;51.510;11.934;2024-01-30T08:31:00;101818.84;;;4.17;98.85
18533;BME280;9396;51.510;11.934;2024-01-30T08:33:27;101814.88;;;4.25;98.58
18533;BME280;9396;51.510;11.934;2024-01-30T08:35:54;101815.38;;;4.33;98.44
18533;BME280;9396;51.510;11.934;2024-01-30T08:38:20;101816.56;;;4.44;97.93
18533;BME280;9396;51.510;11.934;2024-01-30T08:40:48;101803.00;;;4.51;97.12
18533;BME280;9396;51.510;11.934;2024-01-30T08:43:14;101809.00;;;4.70;96.50
18533;BME280;9396;51.510;11.934;2024-01-30T08:45:42;101808.19;;;4.85;96.34
18533;BME280;9396;51.510;11.934;2024-01-30T08:48:08;101803.28;;;4.95;95.24
18533;BME280;9396;51.510;11.934;2024-01-30T08:50:35;101808.03;;;5.04;93.72
18533;BME280;9396;51.510;11.934;2024-01-30T08:53:01;101817.25;;;5.12;93.69
18533;BME280;9396;51.510;11.934;2024-01-30T08:55:28;101806.88;;;5.25;92.80
18533;BME280;9396;51.510;11.934;2024-01-30T08:57:56;101812.13;;;5.25;92.36
18533;BME280;9396;51.510;11.934;2024-01-30T09:00:23;101806.88;;;5.25;92.59
18533;BME280;9396;51.510;11.934;2024-01-30T09:02:49;101802.34;;;5.42;92.06
18533;BME280;9396;51.510;11.934;2024-01-30T09:05:16;101801.34;;;5.59;92.00
18533;BME280;9396;51.510;11.934;2024-01-30T09:07:43;101810.81;;;5.63;91.66
18533;BME280;9396;51.510;11.934;2024-01-30T09:10:09;101803.72;;;5.79;90.96
18533;BME280;9396;51.510;11.934;2024-01-30T09:12:36;101800.47;;;5.90;90.62
18533;BME280;9396;51.510;11.934;2024-01-30T09:15:05;101805.97;;;6.01;89.32
18533;BME280;9396;51.510;11.934;2024-01-30T09:17:32;101803.66;;;6.10;88.32
18533;BME280;9396;51.510;11.934;2024-01-30T09:19:58;101808.41;;;6.19;89.11
18533;BME280;9396;51.510;11.934;2024-01-30T09:22:25;101803.00;;;6.07;87.75
18533;BME280;9396;51.510;11.934;2024-01-30T09:24:52;101802.25;;;6.19;87.56
18533;BME280;9396;51.510;11.934;2024-01-30T09:27:19;101804.50;;;6.25;87.15
18533;BME280;9396;51.510;11.934;2024-01-30T09:29:45;101794.91;;;6.38;87.13
18533;BME280;9396;51.510;11.934;2024-01-30T09:32:13;101789.84;;;6.49;86.30
18533;BME280;9396;51.510;11.934;2024-01-30T09:34:40;101788.97;;;6.48;87.00
18533;BME280;9396;51.510;11.934;2024-01-30T09:37:07;101790.41;;;6.54;86.91
18533;BME280;9396;51.510;11.934;2024-01-30T09:39:34;101788.41;;;6.58;86.58
18533;BME280;9396;51.510;11.934;2024-01-30T09:42:04;101790.97;;;6.59;86.54
18533;BME280;9396;51.510;11.934;2024-01-30T09:44:35;101789.47;;;6.69;86.74
18533;BME280;9396;51.510;11.934;2024-01-30T09:47:02;101793.59;;;6.73;86.53
18533;BME280;9396;51.510;11.934;2024-01-30T09:49:32;101786.06;;;6.81;85.74
18533;BME280;9396;51.510;11.934;2024-01-30T09:52:00;101791.78;;;6.88;84.39
18533;BME280;9396;51.510;11.934;2024-01-30T09:54:29;101786.13;;;6.94;84.81
18533;BME280;9396;51.510;11.934;2024-01-30T09:56:56;101788.13;;;6.90;84.98
18533;BME280;9396;51.510;11.934;2024-01-30T09:59:23;101784.72;;;6.88;86.12
18533;BME280;9396;51.510;11.934;2024-01-30T10:01:50;101786.44;;;6.75;85.38
18533;BME280;9396;51.510;11.934;2024-01-30T10:04:17;101785.09;;;6.82;85.59
18533;BME280;9396;51.510;11.934;2024-01-30T10:06:46;101783.38;;;6.95;85.42
18533;BME280;9396;51.510;11.934;2024-01-30T10:09:13;101778.28;;;7.06;85.84
18533;BME280;9396;51.510;11.934;2024-01-30T10:11:40;101781.00;;;7.19;85.32
18533;BME280;9396;51.510;11.934;2024-01-30T10:14:07;101778.44;;;7.03;85.56
18533;BME280;9396;51.510;11.934;2024-01-30T10:16:34;101788.34;;;7.14;85.70
18533;BME280;9396;51.510;11.934;2024-01-30T10:19:01;101786.28;;;7.19;86.75
18533;BME280;9396;51.510;11.934;2024-01-30T10:21:28;101784.56;;;7.18;86.48
18533;BME280;9396;51.510;11.934;2024-01-30T10:23:57;101785.94;;;7.37;85.72
18533;BME280;9396;51.510;11.934;2024-01-30T10:26:24;101785.78;;;7.53;86.16
18533;BME280;9396;51.510;11.934;2024-01-30T10:28:50;101774.47;;;7.51;85.34
18533;BME280;9396;51.510;11.934;2024-01-30T10:31:18;101786.66;;;7.66;85.91
18533;BME280;9396;51.510;11.934;2024-01-30T10:33:44;101786.47;;;7.69;84.68
18533;BME280;9396;51.510;11.934;2024-01-30T10:36:13;101782.28;;;7.79;84.86
18533;BME280;9396;51.510;11.934;2024-01-30T10:38:42;101781.31;;;7.80;84.35
18533;BME280;9396;51.510;11.934;2024-01-30T10:41:15;101771.72;;;7.92;84.42
18533;BME280;9396;51.510;11.934;2024-01-30T10:43:49;101766.94;;;7.97;84.37
18533;BME280;9396;51.510;11.934;2024-01-30T10:46:19;101765.97;;;7.98;84.10
18533;BME280;9396;51.510;11.934;2024-01-30T10:48:50;101770.66;;;8.07;84.20
18533;BME280;9396;51.510;11.934;2024-01-30T10:51:18;101766.63;;;8.14;84.53
18533;BME280;9396;51.510;11.934;2024-01-30T10:53:46;101765.47;;;8.05;85.15
18533;BME280;9396;51.510;11.934;2024-01-30T10:56:18;101757.09;;;7.99;86.20
18533;BME280;9396;51.510;11.934;2024-01-30T10:58:47;101760.28;;;8.04;86.19
18533;BME280;9396;51.510;11.934;2024-01-30T11:01:14;101758.56;;;8.15;86.18
18533;BME280;9396;51.510;11.934;2024-01-30T11:03:41;101753.91;;;8.19;84.77
18533;BME280;9396;51.510;11.934;2024-01-30T11:06:10;101759.03;;;8.22;84.94
18533;BME280;9396;51.510;11.934;2024-01-30T11:08:39;101757.34;;;8.33;85.50
18533;BME280;9396;51.510;11.934;2024-01-30T11:11:09;101760.00;;;8.46;85.49
18533;BME280;9396;51.510;11.934;2024-01-30T11:13:37;101753.63;;;8.48;85.56
18533;BME280;9396;51.510;11.934;2024-01-30T11:16:05;101755.84;;;8.42;86.49
18533;BME280;9396;51.510;11.934;2024-01-30T11:18:32;101751.22;;;8.45;86.48
18533;BME280;9396;51.510;11.934;2024-01-30T11:21:00;101745.06;;;8.45;87.05
18533;BME280;9396;51.510;11.934;2024-01-30T11:23:27;101746.56;;;8.36;87.22
18533;BME280;9396;51.510;11.934;2024-01-30T11:25:55;101742.94;;;8.37;87.50
18533;BME280;9396;51.510;11.934;2024-01-30T11:28:22;101737.97;;;8.33;87.73
18533;BME280;9396;51.510;11.934;2024-01-30T11:30:51;101726.16;;;8.24;88.60
18533;BME280;9396;51.510;11.934;2024-01-30T11:33:28;101736.78;;;8.24;87.81
18533;BME280;9396;51.510;11.934;2024-01-30T11:35:57;101725.75;;;8.30;87.46
18533;BME280;9396;51.510;11.934;2024-01-30T11:38:25;101729.56;;;8.39;87.58
18533;BME280;9396;51.510;11.934;2024-01-30T11:40:53;101731.28;;;8.40;87.44
18533;BME280;9396;51.510;11.934;2024-01-30T11:43:20;101723.31;;;8.40;87.23
18533;BME280;9396;51.510;11.934;2024-01-30T11:45:47;101722.25;;;8.42;86.99
18533;BME280;9396;51.510;11.934;2024-01-30T11:48:15;101714.81;;;8.35;87.30
18533;BME280;9396;51.510;11.934;2024-01-30T11:50:43;101721.72;;;8.37;87.87
18533;BME280;9396;51.510;11.934;2024-01-30T11:53:11;101713.97;;;8.47;87.83
18533;BME280;9396;51.510;11.934;2024-01-30T11:55:37;101713.22;;;8.57;86.76
18533;BME280;9396;51.510;11.934;2024-01-30T11:58:04;101719.31;;;8.71;86.44
18533;BME280;9396;51.510;11.934;2024-01-30T12:00:31;101714.00;;;8.83;86.16
18533;BME280;9396;51.510;11.934;2024-01-30T12:02:58;101707.28;;;8.90;85.49
18533;BME280;9396;51.510;11.934;2024-01-30T12:05:28;101707.41;;;8.89;85.78
18533;BME280;9396;51.510;11.934;2024-01-30T12:07:54;101710.34;;;8.97;86.37
18533;BME280;9396;51.510;11.934;2024-01-30T12:10:24;101705.81;;;9.10;85.33
18533;BME280;9396;51.510;11.934;2024-01-30T12:12:51;101702.66;;;9.05;85.94
18533;BME280;9396;51.510;11.934;2024-01-30T12:15:19;101704.53;;;9.15;86.01
18533;BME280;9396;51.510;11.934;2024-01-30T12:17:48;101688.28;;;9.20;86.02
18533;BME280;9396;51.510;11.934;2024-01-30T12:20:17;101697.69;;;9.24;85.81
18533;BME280;9396;51.510;11.934;2024-01-30T12:22:47;101686.63;;;9.30;84.71
18533;BME280;9396;51.510;11.934;2024-01-30T12:25:15;101691.50;;;9.36;85.01
18533;BME280;9396;51.510;11.934;2024-01-30T12:27:43;101685.44;;;9.34;85.09
18533;BME280;9396;51.510;11.934;2024-01-30T12:30:12;101678.09;;;9.37;84.98
18533;BME280;9396;51.510;11.934;2024-01-30T12:32:41;101685.44;;;9.34;85.25
18533;BME280;9396;51.510;11.934;2024-01-30T12:35:09;101684.66;;;9.21;85.24
18533;BME280;9396;51.510;11.934;2024-01-30T12:37:36;101676.19;;;9.16;85.31
18533;BME280;9396;51.510;11.934;2024-01-30T12:40:05;101672.25;;;9.21;85.21
18533;BME280;9396;51.510;11.934;2024-01-30T12:42:32;101665.00;;;9.23;87.08
18533;BME280;9396;51.510;11.934;2024-01-30T12:44:59;101666.25;;;9.30;86.70
18533;BME280;9396;51.510;11.934;2024-01-30T12:47:26;101665.38;;;9.30;87.65
18533;BME280;9396;51.510;11.934;2024-01-30T12:49:53;101659.63;;;9.36;87.08
18533;BME280;9396;51.510;11.934;2024-01-30T12:52:20;101655.75;;;9.40;86.21
18533;BME280;9396;51.510;11.934;2024-01-30T12:54:47;101656.66;;;9.51;85.82
18533;BME280;9396;51.510;11.934;2024-01-30T12:57:15;101652.44;;;9.60;86.13